TimeCST,TemperatureF,Dew PointF,Humidity,Sea Level PressureIn,VisibilityMPH,Wind Direction,Wind SpeedMPH,Gust SpeedMPH,PrecipitationIn,Events,Conditions,WindDirDegrees,DateUTC
12:15 AM,51.8,46.4,82,29.80,7.0,Calm,Calm,-,N/A,,Mostly Cloudy,0,2012-12-09 06:15:00
12:55 AM,50.0,46.4,87,29.79,6.0,Calm,Calm,-,N/A,,Partly Cloudy,0,2012-12-09 06:55:00
1:15 AM,48.2,46.4,93,29.79,5.0,North,5.8,-,N/A,,Partly Cloudy,360,2012-12-09 07:15:00
1:55 AM,50.0,46.4,87,29.79,5.0,NNE,4.6,-,N/A,,Overcast,20,2012-12-09 07:55:00
2:15 AM,51.8,48.2,88,29.79,5.0,North,5.8,-,N/A,,Overcast,10,2012-12-09 08:15:00
2:35 AM,51.8,48.2,88,29.78,6.0,Calm,Calm,-,N/A,,Overcast,0,2012-12-09 08:35:00
2:55 AM,51.8,48.2,88,29.78,6.0,NNE,4.6,-,N/A,,Overcast,20,2012-12-09 08:55:00
3:35 AM,51.8,48.2,88,29.77,6.0,ENE,4.6,-,N/A,,Overcast,60,2012-12-09 09:35:00
3:55 AM,51.8,48.2,88,29.77,6.0,ENE,3.5,-,N/A,,Overcast,60,2012-12-09 09:55:00
4:15 AM,53.6,48.2,82,29.76,6.0,NE,3.5,-,N/A,,Overcast,50,2012-12-09 10:15:00
4:35 AM,53.6,48.2,82,29.75,6.0,ENE,5.8,-,N/A,,Overcast,70,2012-12-09 10:35:00
4:55 AM,53.6,48.2,82,29.75,6.0,NE,5.8,-,N/A,,Overcast,40,2012-12-09 10:55:00
5:15 AM,53.6,48.2,82,29.75,5.0,ENE,5.8,-,N/A,Thunderstorm,Overcast,70,2012-12-09 11:15:00
5:35 AM,53.6,48.2,82,29.76,2.5,NE,3.5,-,0.13,Thunderstorm,Overcast,50,2012-12-09 11:35:00
5:55 AM,51.8,48.2,88,29.75,3.0,NE,5.8,-,0.22,Thunderstorm,Mostly Cloudy,50,2012-12-09 11:55:00
6:16 AM,51.8,48.2,88,29.75,3.0,ENE,6.9,-,0.02,,Overcast,70,2012-12-09 12:16:00
6:35 AM,53.6,50.0,88,29.76,3.0,NE,4.6,-,0.03,,Overcast,50,2012-12-09 12:35:00
7:15 AM,53.6,50.0,88,29.77,3.0,NNE,3.5,-,N/A,,Overcast,20,2012-12-09 13:15:00
7:35 AM,53.6,50.0,88,29.77,2.5,North,5.8,-,N/A,,Overcast,10,2012-12-09 13:35:00
7:56 AM,51.8,50.0,94,29.78,2.5,North,5.8,-,N/A,,Overcast,350,2012-12-09 13:56:00
8:15 AM,53.6,50.0,88,29.78,2.5,NNW,4.6,-,N/A,,Overcast,330,2012-12-09 14:15:00
8:35 AM,53.6,50.0,88,29.78,2.5,North,4.6,-,N/A,,Overcast,360,2012-12-09 14:35:00
8:55 AM,53.6,50.0,88,29.79,2.5,North,9.2,-,N/A,,Overcast,350,2012-12-09 14:55:00
9:15 AM,53.6,50.0,88,29.80,2.5,NNW,6.9,-,N/A,,Overcast,330,2012-12-09 15:15:00
9:35 AM,53.6,50.0,88,29.80,3.0,North,11.5,-,N/A,,Overcast,10,2012-12-09 15:35:00
9:55 AM,53.6,50.0,88,29.82,4.0,NNW,3.5,-,N/A,,Overcast,340,2012-12-09 15:55:00
10:15 AM,53.6,50.0,88,29.81,4.0,North,10.4,-,N/A,,Overcast,350,2012-12-09 16:15:00
10:55 AM,51.8,46.4,82,29.82,5.0,North,15.0,-,N/A,,Overcast,350,2012-12-09 16:55:00
11:15 AM,51.8,44.6,76,29.83,5.0,North,10.4,-,N/A,,Overcast,350,2012-12-09 17:15:00
11:55 AM,50.0,44.6,82,29.81,5.0,North,13.8,19.6,N/A,,Overcast,360,2012-12-09 17:55:00
12:15 PM,50.0,44.6,82,29.82,5.0,North,9.2,-,N/A,,Overcast,360,2012-12-09 18:15:00
12:35 PM,48.2,42.8,82,29.82,7.0,North,11.5,-,N/A,,Overcast,350,2012-12-09 18:35:00
12:56 PM,48.2,42.8,82,29.83,8.0,North,9.2,-,N/A,,Overcast,350,2012-12-09 18:56:00
1:15 PM,48.2,42.8,82,29.83,10.0,North,10.4,-,N/A,,Overcast,350,2012-12-09 19:15:00
1:35 PM,48.2,42.8,82,29.82,10.0,North,12.7,-,N/A,,Overcast,360,2012-12-09 19:35:00
1:56 PM,46.4,42.8,87,29.84,9.0,NNW,8.1,-,N/A,,Overcast,340,2012-12-09 19:56:00
2:15 PM,46.4,42.8,87,29.84,10.0,North,9.2,-,N/A,,Overcast,350,2012-12-09 20:15:00
2:35 PM,46.4,41.0,81,29.85,9.0,North,12.7,-,N/A,,Overcast,360,2012-12-09 20:35:00
2:55 PM,46.4,41.0,81,29.86,8.0,North,11.5,-,N/A,,Overcast,350,2012-12-09 20:55:00
3:35 PM,46.4,41.0,81,29.87,9.0,NNW,8.1,-,N/A,,Overcast,330,2012-12-09 21:35:00
3:55 PM,46.4,39.2,76,29.88,9.0,North,8.1,-,N/A,,Overcast,350,2012-12-09 21:55:00
4:15 PM,46.4,39.2,76,29.88,10.0,NNW,6.9,-,N/A,,Overcast,330,2012-12-09 22:15:00
4:55 PM,46.4,39.2,76,29.89,10.0,NNW,9.2,-,N/A,,Overcast,340,2012-12-09 22:55:00
5:15 PM,46.4,39.2,76,29.90,10.0,NNW,8.1,-,N/A,,Overcast,330,2012-12-09 23:15:00
5:36 PM,46.4,39.2,76,29.91,10.0,NNW,6.9,-,N/A,,Overcast,340,2012-12-09 23:36:00
5:55 PM,46.4,37.4,71,29.91,10.0,NNW,8.1,-,N/A,,Overcast,330,2012-12-09 23:55:00
6:15 PM,44.6,37.4,76,29.91,10.0,NNW,10.4,19.6,N/A,,Overcast,340,2012-12-10 00:15:00
6:35 PM,44.6,35.6,71,29.92,10.0,NNW,10.4,19.6,N/A,,Overcast,340,2012-12-10 00:35:00
6:55 PM,44.6,35.6,71,29.93,10.0,NNW,12.7,18.4,N/A,,Overcast,340,2012-12-10 00:55:00
7:35 PM,42.8,33.8,70,29.94,10.0,NNW,12.7,19.6,N/A,,Overcast,340,2012-12-10 01:35:00
7:55 PM,42.8,32.0,66,29.95,10.0,NNW,11.5,18.4,N/A,,Overcast,330,2012-12-10 01:55:00
8:35 PM,39.2,26.6,61,29.96,10.0,North,16.1,21.9,N/A,,Overcast,360,2012-12-10 02:35:00
8:55 PM,37.4,24.8,60,29.96,10.0,North,13.8,24.2,N/A,,Scattered Clouds,350,2012-12-10 02:55:00
9:16 PM,37.4,24.8,60,29.96,10.0,North,11.5,-,N/A,,Clear,360,2012-12-10 03:16:00
9:35 PM,35.6,23.0,60,29.97,10.0,NNW,11.5,19.6,N/A,,Clear,340,2012-12-10 03:35:00
9:55 PM,35.6,23.0,60,29.99,10.0,North,13.8,18.4,N/A,,Clear,350,2012-12-10 03:55:00
10:35 PM,33.8,19.4,56,30.00,10.0,NNW,11.5,-,N/A,,Clear,330,2012-12-10 04:35:00
10:55 PM,32.0,19.4,60,30.00,10.0,North,11.5,17.3,N/A,,Clear,350,2012-12-10 04:55:00
11:16 PM,30.2,19.4,64,30.01,10.0,NW,10.4,-,N/A,,Clear,320,2012-12-10 05:16:00
11:35 PM,30.2,17.6,60,30.01,10.0,NNW,11.5,19.6,N/A,,Clear,330,2012-12-10 05:35:00